Time;durP1;ratioP1;P1;durP2;ratioP2;P2;SDS_P1;SDS_P2;PMS_P1;PMS_P2;Temp;Humidity;BMP_temperature;BMP_pressure;BME280_temperature;BME280_humidity;BME280_pressure;Samples;Min_cycle;Max_cycle;Signal;HPM_P1;HPM_P2
2022/08/12 00:45:00;;;;;;;5.72;3.05;;;19.50;99.90;;;;;;5073843;28;20145;-72
2022/08/12 00:47:25;;;;;;;6.13;2.67;;;19.50;99.90;;;;;;5073022;28;20561;-72
2022/08/12 00:49:53;;;;;;;3.53;2.88;;;19.50;99.90;;;;;;5056851;28;20414;-72
2022/08/12 00:52:20;;;;;;;5.20;2.95;;;19.50;99.90;;;;;;5090066;28;20115;-72
2022/08/12 00:54:46;;;;;;;5.15;3.45;;;19.40;99.90;;;;;;5091711;28;20048;-71
2022/08/12 00:57:21;;;;;;;3.65;2.90;;;19.40;99.90;;;;;;5076111;28;20464;-72
2022/08/12 00:59:47;;;;;;;3.55;2.95;;;19.30;99.90;;;;;;5062751;28;20123;-72
2022/08/12 01:02:22;;;;;;;3.90;3.30;;;19.30;99.90;;;;;;5051220;28;20032;-72
2022/08/12 01:13:12;;;;;;;5.22;3.40;;;19.20;99.90;;;;;;5062154;28;20068;-72
2022/08/12 01:15:39;;;;;;;4.43;3.63;;;19.10;99.90;;;;;;5058053;28;20131;-72
2022/08/12 01:18:05;;;;;;;5.72;3.30;;;19.00;99.90;;;;;;5095072;28;20043;-72
2022/08/12 01:21:10;;;;;;;3.78;3.03;;;19.00;99.90;;;;;;5077244;28;20043;-72
2022/08/12 01:24:24;;;;;;;5.75;2.95;;;19.00;99.90;;;;;;5079354;28;20055;-72
2022/08/12 01:26:51;;;;;;;4.93;3.38;;;18.90;99.90;;;;;;5017213;28;20055;-72
2022/08/12 01:29:26;;;;;;;4.50;3.40;;;18.90;99.90;;;;;;5113467;28;20096;-72
2022/08/12 01:31:56;;;;;;;6.78;3.28;;;18.90;99.90;;;;;;5097185;28;20042;-72
2022/08/12 01:34:30;;;;;;;6.35;3.40;;;18.80;99.90;;;;;;5097498;28;20145;-71
2022/08/12 01:36:58;;;;;;;4.43;3.50;;;18.80;99.90;;;;;;5097482;28;20088;-72
2022/08/12 01:39:29;;;;;;;5.80;2.75;;;18.80;99.90;;;;;;5090599;28;20051;-72
2022/08/12 01:41:59;;;;;;;6.68;3.33;;;18.80;99.90;;;;;;5089930;28;20035;-72
2022/08/12 01:44:29;;;;;;;6.38;3.42;;;18.70;99.90;;;;;;5097298;28;20043;-72
2022/08/12 01:47:17;;;;;;;5.00;3.20;;;18.70;99.90;;;;;;5083227;28;20047;-72
2022/08/12 01:50:00;;;;;;;6.07;3.10;;;18.60;99.90;;;;;;5097004;28;20134;-72
2022/08/12 01:52:47;;;;;;;4.00;3.20;;;18.60;99.90;;;;;;5105279;28;20032;-72
2022/08/12 01:55:18;;;;;;;5.10;3.40;;;18.60;99.90;;;;;;5102000;28;20046;-71
2022/08/12 01:57:57;;;;;;;4.75;3.03;;;18.50;99.90;;;;;;5096937;28;20035;-71
2022/08/12 02:00:25;;;;;;;3.38;3.08;;;18.50;99.90;;;;;;5114990;28;20043;-71
2022/08/12 02:03:16;;;;;;;3.75;2.80;;;18.50;99.90;;;;;;5096783;28;20130;-71
2022/08/12 02:12:24;;;;;;;3.42;3.13;;;18.40;99.90;;;;;;5092141;28;20043;-71
2022/08/12 02:15:01;;;;;;;5.88;3.45;;;18.30;99.90;;;;;;5089891;28;20050;-72
2022/08/12 02:17:59;;;;;;;4.03;3.08;;;18.30;99.90;;;;;;5094221;28;20044;-72
2022/08/12 02:20:45;;;;;;;6.55;3.22;;;18.20;99.90;;;;;;5078601;28;20048;-72
2022/08/12 02:23:11;;;;;;;5.03;3.40;;;18.20;99.90;;;;;;5085752;28;20097;-72
2022/08/12 02:25:43;;;;;;;4.22;3.20;;;18.20;99.90;;;;;;5105609;28;20036;-72
2022/08/12 02:28:10;;;;;;;3.50;2.97;;;18.20;99.90;;;;;;5077260;28;20043;-72
2022/08/12 02:30:36;;;;;;;4.82;3.20;;;18.20;99.90;;;;;;5076473;28;20047;-72
2022/08/12 02:33:04;;;;;;;4.18;3.05;;;18.10;99.90;;;;;;5108137;28;20047;-72
2022/08/12 02:35:34;;;;;;;7.78;3.10;;;18.10;99.90;;;;;;5093057;28;20044;-72
2022/08/12 02:38:04;;;;;;;5.32;3.25;;;18.10;99.90;;;;;;5095077;28;20128;-72
2022/08/12 02:40:33;;;;;;;9.02;3.40;;;18.00;99.90;;;;;;5083874;28;20094;-72
2022/08/12 02:43:16;;;;;;;6.20;3.38;;;18.00;99.90;;;;;;5082028;28;20084;-72
2022/08/12 02:46:03;;;;;;;5.55;3.75;;;17.90;99.90;;;;;;5096480;28;20047;-72
2022/08/12 02:48:44;;;;;;;5.18;3.75;;;17.90;99.90;;;;;;5094434;28;20051;-72
2022/08/12 02:51:12;;;;;;;5.20;4.00;;;17.80;99.90;;;;;;5099708;28;20086;-72
2022/08/12 02:53:39;;;;;;;6.43;3.60;;;17.70;99.90;;;;;;5114320;28;20067;-72
2022/08/12 02:56:05;;;;;;;5.22;3.38;;;17.70;99.90;;;;;;5096082;28;20036;-72
2022/08/12 02:58:34;;;;;;;4.00;3.33;;;17.70;99.90;;;;;;5095745;28;20047;-71
2022/08/12 03:01:03;;;;;;;4.10;3.20;;;17.60;99.90;;;;;;5081763;28;20052;-72
2022/08/12 03:03:32;;;;;;;4.65;3.20;;;17.70;99.90;;;;;;5092482;28;20046;-72
2022/08/12 03:05:59;;;;;;;7.15;4.20;;;17.60;99.90;;;;;;5076409;28;20101;-72
2022/08/12 03:08:30;;;;;;;6.97;4.03;;;17.60;99.90;;;;;;5087836;28;20047;-72
2022/08/12 03:11:02;;;;;;;5.57;3.67;;;17.60;99.90;;;;;;5087571;28;20032;-72
2022/08/12 03:13:32;;;;;;;5.47;3.80;;;17.60;99.90;;;;;;5084987;28;20035;-72
2022/08/12 03:15:58;;;;;;;5.10;3.97;;;17.60;99.90;;;;;;5081879;28;20040;-72
2022/08/12 03:18:30;;;;;;;4.72;3.97;;;17.60;99.90;;;;;;5086274;28;20051;-72
2022/08/12 03:21:00;;;;;;;4.47;4.00;;;17.50;99.90;;;;;;5085175;28;20051;-72
2022/08/12 03:23:28;;;;;;;5.78;3.88;;;17.50;99.90;;;;;;5103708;28;20110;-72
2022/08/12 03:25:57;;;;;;;6.03;4.03;;;17.60;99.90;;;;;;5084537;28;20036;-72
2022/08/12 03:31:09;;;;;;;4.95;4.38;;;17.50;99.90;;;;;;5088944;28;20076;-72
2022/08/12 03:33:43;;;;;;;5.63;4.50;;;17.50;99.90;;;;;;5105008;28;20035;-71
2022/08/12 03:36:10;;;;;;;4.90;4.40;;;17.40;99.90;;;;;;5081388;28;20039;-71
2022/08/12 03:38:39;;;;;;;5.05;4.15;;;17.40;99.90;;;;;;5092136;28;20084;-72
2022/08/12 03:41:34;;;;;;;5.53;4.18;;;17.40;99.90;;;;;;5110559;28;20044;-72
2022/08/12 04:00:51;;;;;;;6.78;4.35;;;17.20;99.90;;;;;;5087820;28;20050;-71
2022/08/12 04:06:02;;;;;;;5.75;4.35;;;17.20;99.90;;;;;;5089034;28;20056;-72
2022/08/12 04:08:29;;;;;;;6.05;4.70;;;17.20;99.90;;;;;;5085989;28;20050;-71
2022/08/12 04:13:39;;;;;;;7.00;5.22;;;17.10;99.90;;;;;;5074837;28;20449;-71
2022/08/12 04:16:09;;;;;;;4.78;4.32;;;17.10;99.90;;;;;;5105822;28;20044;-71
2022/08/12 04:18:37;;;;;;;5.15;4.70;;;17.10;99.90;;;;;;5072805;28;20044;-71
2022/08/12 04:21:09;;;;;;;7.25;5.45;;;17.10;99.90;;;;;;5078510;28;20494;-72
2022/08/12 04:23:39;;;;;;;5.60;5.10;;;17.10;99.90;;;;;;5072303;28;20098;-72
2022/08/12 04:26:05;;;;;;;5.70;5.18;;;17.00;99.90;;;;;;5089636;28;20486;-72
2022/08/12 04:28:32;;;;;;;6.72;5.47;;;17.00;99.90;;;;;;5070998;28;20573;-72
2022/08/12 04:30:57;;;;;;;6.38;5.55;;;17.00;99.90;;;;;;5091886;28;20558;-72
2022/08/12 04:33:24;;;;;;;8.45;5.75;;;17.00;99.90;;;;;;5073795;28;20119;-72
2022/08/12 04:35:50;;;;;;;8.73;5.57;;;16.90;99.90;;;;;;5066407;28;20441;-72
2022/08/12 04:38:17;;;;;;;9.38;5.60;;;16.90;99.90;;;;;;5054099;28;20040;-72
2022/08/12 04:40:44;;;;;;;8.98;6.10;;;16.90;99.90;;;;;;5066337;28;20058;-72
2022/08/12 04:43:11;;;;;;;10.10;6.35;;;16.90;99.90;;;;;;5084932;28;20402;-72
2022/08/12 04:45:38;;;;;;;7.13;6.13;;;16.90;99.90;;;;;;5061215;28;20412;-72
2022/08/12 04:48:07;;;;;;;13.52;6.10;;;16.90;99.90;;;;;;5072090;28;20418;-72
2022/08/12 04:50:33;;;;;;;6.95;6.30;;;16.90;99.90;;;;;;5060863;28;20069;-72
2022/08/12 04:52:59;;;;;;;7.80;6.22;;;16.80;99.90;;;;;;5091877;28;20406;-72
2022/08/12 04:55:26;;;;;;;10.50;5.82;;;16.90;99.90;;;;;;5072892;28;20508;-72
2022/08/12 04:57:53;;;;;;;7.75;6.03;;;16.90;99.90;;;;;;5072294;28;20062;-72
2022/08/12 05:00:19;;;;;;;7.60;6.18;;;16.90;99.90;;;;;;5075253;28;20070;-72
2022/08/12 05:02:45;;;;;;;6.90;6.20;;;17.00;99.90;;;;;;5090727;28;20552;-72
2022/08/12 05:05:19;;;;;;;10.50;5.93;;;16.90;99.90;;;;;;5070173;28;20088;-72
2022/08/12 05:07:46;;;;;;;6.43;5.30;;;17.00;99.90;;;;;;5058720;28;20074;-72
2022/08/12 05:10:13;;;;;;;10.73;6.07;;;17.10;99.90;;;;;;5071328;28;20075;-72
2022/08/12 05:12:43;;;;;;;10.93;6.00;;;17.10;99.90;;;;;;5059397;28;20037;-72
2022/08/12 05:15:12;;;;;;;9.50;6.53;;;17.10;99.90;;;;;;5060202;28;20069;-72
2022/08/12 05:17:40;;;;;;;9.10;6.03;;;17.20;99.90;;;;;;5060519;28;20045;-72
2022/08/12 05:20:10;;;;;;;6.30;5.65;;;17.20;99.90;;;;;;5065031;28;20045;-72
2022/08/12 05:22:39;;;;;;;7.93;5.53;;;17.20;99.90;;;;;;5069715;28;20445;-72
2022/08/12 05:25:05;;;;;;;12.25;5.63;;;17.30;99.90;;;;;;5063989;28;20106;-72
2022/08/12 05:27:32;;;;;;;5.68;4.95;;;17.30;99.90;;;;;;5073132;28;20040;-72
2022/08/12 05:29:58;;;;;;;9.32;5.72;;;17.40;99.90;;;;;;5072861;28;20048;-72
2022/08/12 05:32:24;;;;;;;8.48;5.93;;;17.50;99.90;;;;;;5059967;28;20123;-72
2022/08/12 05:34:52;;;;;;;13.75;5.78;;;17.50;99.90;;;;;;5060810;28;20367;-72
2022/08/12 05:37:20;;;;;;;8.63;6.00;;;17.50;99.90;;;;;;5063300;28;20365;-72
2022/08/12 05:39:46;;;;;;;9.73;5.10;;;17.60;99.90;;;;;;5060644;28;20391;-71
2022/08/12 05:42:11;;;;;;;9.23;6.22;;;17.60;99.90;;;;;;5059428;28;20045;-71
2022/08/12 05:44:37;;;;;;;5.68;4.95;;;17.70;99.90;;;;;;5066316;28;20040;-71
2022/08/12 05:47:03;;;;;;;6.95;5.03;;;17.70;99.90;;;;;;5066403;28;20456;-71
2022/08/12 05:49:29;;;;;;;8.05;5.55;;;17.80;99.90;;;;;;5059894;28;20451;-71
2022/08/12 05:51:56;;;;;;;8.68;5.65;;;17.80;99.90;;;;;;5072978;28;20071;-72
2022/08/12 05:54:21;;;;;;;6.97;4.90;;;17.90;99.90;;;;;;5062625;28;20119;-72
2022/08/12 05:56:47;;;;;;;8.23;5.75;;;17.90;99.90;;;;;;5057197;28;20452;-72
2022/08/12 05:59:13;;;;;;;8.18;5.10;;;17.90;99.90;;;;;;5072785;28;20039;-72
2022/08/12 06:01:40;;;;;;;8.50;5.35;;;18.00;99.90;;;;;;5059939;28;20540;-72
2022/08/12 06:04:08;;;;;;;10.00;5.30;;;18.10;99.90;;;;;;5084469;28;20036;-72
2022/08/12 06:06:38;;;;;;;7.28;4.93;;;18.20;99.90;;;;;;5057676;28;20433;-72
2022/08/12 06:09:03;;;;;;;6.88;5.15;;;18.10;99.90;;;;;;5076033;28;20375;-72
2022/08/12 06:11:29;;;;;;;6.25;4.95;;;18.20;99.90;;;;;;5081344;28;20101;-72
2022/08/12 06:13:57;;;;;;;8.88;4.75;;;18.30;99.90;;;;;;5076800;28;20036;-72
2022/08/12 06:16:24;;;;;;;7.70;4.78;;;18.30;99.90;;;;;;5076226;28;20503;-72
2022/08/12 06:18:50;;;;;;;7.55;4.85;;;18.40;99.90;;;;;;5084563;28;20397;-71
2022/08/12 06:21:20;;;;;;;10.18;4.85;;;18.50;99.90;;;;;;5096323;28;20047;-72
2022/08/12 06:23:46;;;;;;;6.75;4.82;;;18.60;99.90;;;;;;5085057;28;20683;-72
2022/08/12 06:26:14;;;;;;;7.63;4.80;;;18.60;99.90;;;;;;5089901;28;20375;-72
2022/08/12 06:28:41;;;;;;;6.18;4.70;;;18.60;99.90;;;;;;5095197;28;20040;-72
2022/08/12 06:31:14;;;;;;;5.63;4.40;;;18.80;99.90;;;;;;5083250;28;20160;-72
2022/08/12 06:33:43;;;;;;;8.98;4.63;;;18.90;99.90;;;;;;5096113;28;20051;-72
2022/08/12 06:36:10;;;;;;;5.88;4.40;;;18.90;99.90;;;;;;5076237;28;20068;-72
2022/08/12 06:38:35;;;;;;;9.98;4.40;;;19.00;99.90;;;;;;5075771;28;20051;-72
2022/08/12 06:43:49;;;;;;;8.10;4.25;;;19.20;99.90;;;;;;5109010;28;20409;-72
2022/08/12 06:46:15;;;;;;;6.82;4.70;;;19.30;99.90;;;;;;5076381;28;20133;-72
2022/08/12 06:48:42;;;;;;;14.40;4.43;;;19.40;99.90;;;;;;5094682;28;20498;-72
2022/08/12 06:51:09;;;;;;;7.72;4.40;;;19.50;99.90;;;;;;5082533;28;20039;-72
2022/08/12 06:53:35;;;;;;;7.78;4.35;;;19.60;99.90;;;;;;5079086;28;20040;-72
2022/08/12 06:56:01;;;;;;;7.60;4.53;;;19.70;99.90;;;;;;5093775;28;20378;-72
2022/08/12 06:58:29;;;;;;;12.10;3.97;;;19.80;99.90;;;;;;5088820;28;20044;-72
2022/08/12 07:00:56;;;;;;;8.93;4.20;;;19.90;99.90;;;;;;5089096;28;20048;-72
2022/08/12 07:03:28;;;;;;;5.57;3.55;;;20.10;99.90;;;;;;5094389;28;20443;-72
2022/08/12 07:05:57;;;;;;;6.57;3.90;;;20.20;99.90;;;;;;5089218;28;20539;-72
2022/08/12 07:08:31;;;;;;;11.32;4.53;;;20.30;99.90;;;;;;5083700;28;20402;-72
2022/08/12 07:11:00;;;;;;;5.07;3.67;;;20.40;99.90;;;;;;5092903;28;20512;-72
2022/08/12 07:13:42;;;;;;;7.93;3.63;;;20.50;99.90;;;;;;5084043;28;20063;-72
2022/08/12 07:16:13;;;;;;;7.05;3.58;;;20.70;99.90;;;;;;5089899;28;20386;-72
2022/08/12 07:18:40;;;;;;;5.95;3.10;;;20.80;99.90;;;;;;5089227;28;20055;-72
2022/08/12 07:21:07;;;;;;;6.20;3.53;;;21.00;99.90;;;;;;5083574;28;20040;-71
2022/08/12 07:23:35;;;;;;;7.43;3.20;;;21.10;99.90;;;;;;5092267;28;20044;-72
2022/08/12 07:26:04;;;;;;;7.97;3.17;;;21.20;99.90;;;;;;5085695;28;20050;-72
2022/08/12 07:28:33;;;;;;;6.10;2.78;;;21.40;99.90;;;;;;5093520;28;20043;-72
2022/08/12 07:31:00;;;;;;;4.10;3.00;;;21.50;99.90;;;;;;5095142;28;20036;-72
2022/08/12 07:33:27;;;;;;;7.15;3.13;;;21.70;99.90;;;;;;5081143;28;20039;-72
2022/08/12 07:35:58;;;;;;;5.00;3.10;;;21.80;99.90;;;;;;5088535;28;20036;-72
2022/08/12 07:38:50;;;;;;;4.80;3.20;;;21.90;99.90;;;;;;5095264;28;20047;-72
2022/08/12 07:41:28;;;;;;;3.38;2.45;;;22.10;99.90;;;;;;5091463;28;20506;-72
2022/08/12 07:43:58;;;;;;;6.72;2.95;;;22.20;99.90;;;;;;5095329;28;20040;-72
2022/08/12 07:46:35;;;;;;;2.75;2.40;;;22.40;99.90;;;;;;5098582;28;20467;-72
2022/08/12 07:49:08;;;;;;;9.73;2.78;;;22.60;99.90;;;;;;5094579;28;20294;-72
2022/08/12 07:51:34;;;;;;;7.90;2.72;;;22.70;99.90;;;;;;5087948;28;20059;-72
2022/08/12 07:54:01;;;;;;;5.25;2.50;;;22.90;99.90;;;;;;5088806;28;20472;-72
2022/08/12 07:56:29;;;;;;;5.93;2.45;;;23.10;99.90;;;;;;5106948;28;20032;-72
2022/08/12 07:58:57;;;;;;;7.47;2.50;;;23.20;99.90;;;;;;5087726;28;20310;-72
2022/08/12 08:01:23;;;;;;;4.82;2.53;;;23.30;99.90;;;;;;5100067;28;20214;-72
2022/08/12 08:06:41;;;;;;;5.60;2.42;;;23.60;99.90;;;;;;5084909;28;20040;-72
2022/08/12 08:09:09;;;;;;;5.80;2.60;;;23.80;99.90;;;;;;5090392;28;20035;-72
2022/08/12 08:14:20;;;;;;;3.80;2.42;;;24.10;99.90;;;;;;5094025;28;20036;-72
2022/08/12 08:16:47;;;;;;;4.78;2.80;;;24.30;99.90;;;;;;5094610;28;20040;-72
2022/08/12 08:19:22;;;;;;;5.25;2.85;;;24.40;99.90;;;;;;5086468;28;20055;-72
2022/08/12 08:21:56;;;;;;;5.60;2.85;;;24.50;99.90;;;;;;5069451;28;20384;-72
2022/08/12 08:24:25;;;;;;;5.05;2.50;;;24.70;99.90;;;;;;5060422;28;20036;-72
2022/08/12 08:26:54;;;;;;;7.18;2.45;;;24.90;99.90;;;;;;5068046;28;20036;-72
2022/08/12 08:29:22;;;;;;;4.75;2.50;;;25.00;99.90;;;;;;5073708;28;20047;-72
2022/08/12 08:31:53;;;;;;;6.95;2.65;;;25.20;99.90;;;;;;5060848;28;20087;-72
2022/08/12 08:34:19;;;;;;;5.32;2.50;;;25.40;99.90;;;;;;5074034;28;20063;-72
2022/08/12 08:36:45;;;;;;;5.70;2.78;;;25.50;99.90;;;;;;5067435;28;20119;-72
2022/08/12 08:39:12;;;;;;;4.22;2.20;;;25.60;99.70;;;;;;5053498;28;20123;-72
2022/08/12 08:44:23;;;;;;;6.80;2.53;;;25.90;98.10;;;;;;5063086;28;20048;-72
2022/08/12 08:46:49;;;;;;;7.78;2.28;;;26.20;97.80;;;;;;5062426;28;20622;-72
2022/08/12 08:49:16;;;;;;;9.80;2.33;;;26.30;96.90;;;;;;5073324;28;20047;-72
2022/08/12 08:51:46;;;;;;;6.72;2.30;;;26.40;94.40;;;;;;5073853;28;20527;-72
2022/08/12 08:54:12;;;;;;;9.05;2.38;;;26.60;95.10;;;;;;5090874;28;20490;-72
2022/08/12 08:56:42;;;;;;;4.28;2.58;;;26.70;94.80;;;;;;5072139;28;20089;-72
2022/08/12 08:59:10;;;;;;;6.10;2.00;;;26.90;92.40;;;;;;5057782;28;20044;-72
2022/08/12 09:01:36;;;;;;;2.60;1.92;;;27.10;90.40;;;;;;5077144;28;20488;-72
2022/08/12 09:04:02;;;;;;;7.03;2.00;;;27.20;90.30;;;;;;5067114;28;20044;-72
2022/08/12 09:06:27;;;;;;;6.43;2.00;;;27.40;87.40;;;;;;5072008;28;20375;-72
2022/08/12 09:08:53;;;;;;;8.13;2.25;;;27.60;87.30;;;;;;5089230;28;20044;-72
2022/08/12 09:14:06;;;;;;;6.05;2.08;;;27.80;80.60;;;;;;5069564;28;20418;-72
2022/08/12 09:16:33;;;;;;;4.10;2.00;;;28.00;80.10;;;;;;5073510;28;20391;-72
2022/08/12 09:19:00;;;;;;;3.63;1.70;;;28.20;78.50;;;;;;5072035;28;20094;-72
2022/08/12 09:21:29;;;;;;;11.15;2.10;;;28.40;78.50;;;;;;5070055;28;20407;-72
2022/08/12 09:23:56;;;;;;;3.75;1.85;;;28.60;75.40;;;;;;5064742;28;20418;-72
2022/08/12 09:26:22;;;;;;;6.03;2.45;;;28.70;77.30;;;;;;5083565;28;20435;-73
2022/08/12 09:28:49;;;;;;;6.78;1.88;;;28.80;76.70;;;;;;5090835;28;20170;-72
2022/08/12 09:31:15;;;;;;;2.30;1.88;;;29.00;73.90;;;;;;5070559;28;20517;-72
2022/08/12 09:33:40;;;;;;;5.35;1.95;;;29.10;72.70;;;;;;5063413;28;20036;-72
2022/08/12 09:36:06;;;;;;;3.45;1.83;;;29.30;73.70;;;;;;5076399;28;20126;-71
2022/08/12 09:38:32;;;;;;;3.22;1.70;;;29.50;73.40;;;;;;5076633;28;20502;-71
2022/08/12 09:40:59;;;;;;;8.80;2.38;;;29.60;71.90;;;;;;5077078;28;20040;-72
2022/08/12 09:46:14;;;;;;;4.65;2.00;;;29.90;71.30;;;;;;5077377;28;20051;-72
2022/08/12 09:48:40;;;;;;;4.93;1.92;;;30.00;70.40;;;;;;5094613;28;20480;-72
2022/08/12 09:51:07;;;;;;;8.63;1.77;;;30.10;68.90;;;;;;5076556;28;20123;-72
2022/08/12 09:53:33;;;;;;;4.68;1.85;;;30.30;67.60;;;;;;5091774;28;20067;-72
2022/08/12 09:56:01;;;;;;;5.72;1.83;;;30.40;67.20;;;;;;5076872;28;20044;-71
2022/08/12 09:58:27;;;;;;;5.95;1.70;;;30.60;68.20;;;;;;5091782;28;20417;-71
2022/08/12 10:00:55;;;;;;;4.63;1.88;;;30.70;68.40;;;;;;5065818;28;20493;-72
2022/08/12 10:03:25;;;;;;;7.63;1.88;;;30.90;65.80;;;;;;5076611;28;20365;-72
2022/08/12 10:05:52;;;;;;;4.37;1.80;;;31.00;64.30;;;;;;5084712;28;20091;-71
2022/08/12 10:08:18;;;;;;;6.85;1.70;;;31.10;63.40;;;;;;5071429;28;20048;-72
2022/08/12 10:13:43;;;;;;;10.43;1.90;;;31.40;61.40;;;;;;5094598;28;20055;-72
2022/08/12 10:16:20;;;;;;;3.35;1.67;;;31.60;59.80;;;;;;5062871;28;20064;-72
2022/08/12 10:19:00;;;;;;;7.88;1.75;;;31.70;58.00;;;;;;5096944;28;20050;-72
2022/08/12 10:21:35;;;;;;;4.45;1.80;;;31.80;56.40;;;;;;5093040;28;20035;-72
2022/08/12 10:24:09;;;;;;;4.30;1.63;;;31.90;56.70;;;;;;5099303;28;20106;-72
2022/08/12 10:29:35;;;;;;;8.88;1.70;;;32.20;52.60;;;;;;5076571;28;20131;-72
2022/08/12 10:32:08;;;;;;;3.92;1.52;;;32.30;51.80;;;;;;5105551;28;20068;-72
2022/08/12 10:34:35;;;;;;;6.65;1.70;;;32.50;51.90;;;;;;5089850;28;20048;-72
2022/08/12 10:37:02;;;;;;;6.07;1.90;;;32.60;51.80;;;;;;5092446;28;20035;-72
2022/08/12 10:39:32;;;;;;;4.95;1.60;;;32.70;51.90;;;;;;5093327;28;20051;-71
2022/08/12 10:44:47;;;;;;;5.47;1.30;;;32.90;50.30;;;;;;5076601;28;20093;-72
2022/08/12 10:47:15;;;;;;;5.43;1.60;;;33.10;47.70;;;;;;5091215;28;20367;-72
2022/08/12 10:49:43;;;;;;;3.78;1.35;;;33.10;45.80;;;;;;5095606;28;20040;-72
2022/08/12 10:52:10;;;;;;;3.85;1.20;;;33.20;46.30;;;;;;5097905;28;20093;-72
2022/08/12 10:54:37;;;;;;;5.22;1.40;;;33.30;46.60;;;;;;5086909;28;20044;-71
2022/08/12 10:57:02;;;;;;;3.15;1.40;;;33.40;44.60;;;;;;5093775;28;20047;-72
2022/08/12 10:59:29;;;;;;;4.32;1.20;;;33.50;44.40;;;;;;5087899;28;20402;-71
2022/08/12 11:01:56;;;;;;;4.38;1.10;;;33.50;43.10;;;;;;5076466;28;20097;-72
2022/08/12 11:04:22;;;;;;;6.88;1.38;;;33.50;44.40;;;;;;5088121;28;20040;-72
2022/08/12 11:06:52;;;;;;;3.40;1.20;;;33.70;44.30;;;;;;5086195;28;20130;-72
2022/08/12 11:09:23;;;;;;;7.88;1.65;;;33.90;45.10;;;;;;5082556;28;20051;-72
2022/08/12 11:11:49;;;;;;;3.73;1.30;;;34.10;46.10;;;;;;5081826;28;20044;-72
2022/08/12 11:14:16;;;;;;;7.15;1.40;;;34.30;44.90;;;;;;5095727;28;20043;-72
2022/08/12 11:16:45;;;;;;;3.65;1.38;;;34.30;44.80;;;;;;5082201;28;20485;-72
2022/08/12 11:19:12;;;;;;;3.28;1.48;;;34.50;42.80;;;;;;5089785;28;20438;-72
2022/08/12 11:21:38;;;;;;;2.20;1.40;;;34.60;44.30;;;;;;5092118;28;20039;-72
2022/08/12 11:24:05;;;;;;;4.80;1.33;;;34.60;43.80;;;;;;5087612;28;20040;-72
2022/08/12 11:26:31;;;;;;;4.38;1.40;;;34.60;43.00;;;;;;5080749;28;20051;-71
2022/08/12 11:28:57;;;;;;;3.92;1.50;;;34.70;43.40;;;;;;5090773;28;20039;-72
2022/08/12 11:31:23;;;;;;;8.48;1.50;;;34.80;43.50;;;;;;5080136;28;20044;-72
2022/08/12 11:33:49;;;;;;;5.53;1.70;;;34.80;43.70;;;;;;5077278;28;20041;-72
2022/08/12 11:36:15;;;;;;;5.78;1.60;;;34.90;44.30;;;;;;5081127;28;20044;-72
2022/08/12 11:38:41;;;;;;;9.65;1.50;;;35.00;42.70;;;;;;5078007;28;20495;-72
2022/08/12 11:41:07;;;;;;;8.52;1.60;;;35.10;41.20;;;;;;5084089;28;20421;-72
2022/08/12 11:43:33;;;;;;;6.80;1.70;;;35.10;41.90;;;;;;5071296;28;20119;-72
2022/08/12 11:45:59;;;;;;;3.83;1.63;;;35.20;42.30;;;;;;5087819;28;20066;-72
2022/08/12 11:48:25;;;;;;;5.57;1.42;;;35.30;43.40;;;;;;5083709;28;20086;-72
2022/08/12 11:50:51;;;;;;;6.28;1.48;;;35.30;44.20;;;;;;5078904;28;20036;-72
2022/08/12 11:53:17;;;;;;;5.97;1.65;;;35.40;43.40;;;;;;5078427;28;20119;-72
2022/08/12 11:55:43;;;;;;;4.13;1.48;;;35.40;42.40;;;;;;5077834;28;20124;-71
2022/08/12 11:58:08;;;;;;;3.72;1.42;;;35.50;42.00;;;;;;5092428;28;20058;-72
2022/08/12 12:00:34;;;;;;;4.20;1.60;;;35.60;41.30;;;;;;5091695;28;20105;-72
2022/08/12 12:03:00;;;;;;;5.82;1.60;;;35.70;41.70;;;;;;5078518;28;20083;-71
2022/08/12 12:05:26;;;;;;;4.05;1.58;;;35.70;41.00;;;;;;5079232;28;20441;-72
2022/08/12 12:07:51;;;;;;;5.93;1.58;;;35.80;41.10;;;;;;5071420;28;20471;-72
2022/08/12 12:10:19;;;;;;;4.50;1.40;;;35.80;41.10;;;;;;5070624;28;20045;-72
2022/08/12 12:12:45;;;;;;;5.55;1.50;;;35.90;41.10;;;;;;5070847;28;20071;-72
2022/08/12 12:15:12;;;;;;;3.40;1.40;;;36.00;41.60;;;;;;5082254;28;20040;-72
2022/08/12 12:17:39;;;;;;;7.93;1.60;;;36.10;39.70;;;;;;5084519;28;20039;-72
2022/08/12 12:20:10;;;;;;;2.95;1.27;;;36.10;39.00;;;;;;5062164;28;20051;-72
2022/08/12 12:22:40;;;;;;;5.35;1.20;;;36.20;39.60;;;;;;5071896;28;20123;-72
2022/08/12 12:25:07;;;;;;;7.68;1.50;;;36.30;38.00;;;;;;5056256;28;20040;-72
2022/08/12 12:27:48;;;;;;;3.95;1.30;;;36.20;39.90;;;;;;5067553;28;20142;-72
2022/08/12 12:30:14;;;;;;;7.07;1.50;;;36.30;38.70;;;;;;5064034;28;20047;-72
2022/08/12 12:32:39;;;;;;;4.53;1.42;;;36.40;40.00;;;;;;5056718;28;20036;-72
2022/08/12 12:35:06;;;;;;;7.78;1.75;;;36.40;38.70;;;;;;5064439;28;20402;-72
2022/08/12 12:37:32;;;;;;;8.18;1.70;;;36.50;38.60;;;;;;5056615;28;20036;-72
2022/08/12 12:39:58;;;;;;;8.00;1.30;;;36.60;36.90;;;;;;5063654;28;20048;-72
2022/08/12 12:42:23;;;;;;;5.47;1.35;;;36.70;37.20;;;;;;5072866;28;20422;-71
2022/08/12 12:44:49;;;;;;;3.42;1.23;;;36.80;37.30;;;;;;5091368;28;20032;-72
2022/08/12 12:47:15;;;;;;;2.95;1.20;;;36.90;39.00;;;;;;5085058;28;20540;-72
2022/08/12 12:49:41;;;;;;;2.45;1.35;;;36.90;39.50;;;;;;5066786;28;20039;-72
2022/08/12 12:52:07;;;;;;;8.63;1.60;;;37.00;38.00;;;;;;5059838;28;20057;-72
2022/08/12 12:54:33;;;;;;;2.67;1.20;;;37.10;39.60;;;;;;5061051;28;20181;-72
2022/08/12 12:56:58;;;;;;;4.30;1.30;;;37.20;40.20;;;;;;5088932;28;20471;-72
2022/08/12 12:59:26;;;;;;;8.98;1.25;;;37.20;37.70;;;;;;5089180;28;20498;-72
2022/08/12 13:01:52;;;;;;;3.10;1.20;;;37.40;38.00;;;;;;5073497;28;20071;-72
2022/08/12 13:04:18;;;;;;;4.13;1.13;;;37.40;36.40;;;;;;5073285;28;20499;-71
2022/08/12 13:06:51;;;;;;;4.72;1.20;;;37.40;36.10;;;;;;5077934;28;20559;-72
2022/08/12 13:09:17;;;;;;;4.70;1.30;;;37.40;36.00;;;;;;5061163;28;20052;-72
2022/08/12 13:11:43;;;;;;;3.25;1.35;;;37.50;36.80;;;;;;5067732;28;20089;-72
2022/08/12 13:14:10;;;;;;;2.45;1.20;;;37.60;37.40;;;;;;5068949;28;20043;-72
2022/08/12 13:16:35;;;;;;;6.82;1.48;;;37.70;36.50;;;;;;5094604;28;20028;-72
2022/08/12 13:19:01;;;;;;;4.57;1.30;;;37.60;36.40;;;;;;5087821;28;20039;-72
2022/08/12 13:21:31;;;;;;;3.75;1.52;;;37.70;36.20;;;;;;5087410;28;20071;-72
2022/08/12 13:23:57;;;;;;;5.75;1.52;;;37.70;36.20;;;;;;5069102;28;20045;-72
2022/08/12 13:26:23;;;;;;;4.15;1.30;;;37.80;36.30;;;;;;5083409;28;20417;-72
2022/08/12 13:28:52;;;;;;;3.15;1.40;;;37.90;36.60;;;;;;5063735;28;20072;-72
2022/08/12 13:31:21;;;;;;;4.50;1.40;;;37.90;35.80;;;;;;5082132;28;20512;-72
2022/08/12 13:33:50;;;;;;;5.00;1.20;;;38.10;36.20;;;;;;5071326;28;20455;-71
2022/08/12 13:36:16;;;;;;;7.38;1.50;;;38.10;35.90;;;;;;5077449;28;20461;-72
2022/08/12 13:38:43;;;;;;;7.00;1.20;;;38.20;36.90;;;;;;5082491;28;20048;-72
2022/08/12 13:41:31;;;;;;;4.03;1.35;;;38.30;36.40;;;;;;5089325;28;20448;-72
2022/08/12 13:44:07;;;;;;;6.05;1.63;;;38.40;36.30;;;;;;5077354;28;20567;-72
2022/08/12 13:46:34;;;;;;;3.97;1.40;;;38.30;34.90;;;;;;5099435;28;20521;-72
2022/08/12 13:49:01;;;;;;;1.83;1.08;;;38.30;35.60;;;;;;5061064;28;20044;-71
2022/08/12 13:51:27;;;;;;;5.53;1.20;;;38.40;35.30;;;;;;5102534;28;20498;-71
2022/08/12 13:53:52;;;;;;;3.88;1.40;;;38.50;35.10;;;;;;5082063;28;20050;-72
2022/08/12 13:56:18;;;;;;;3.63;1.23;;;38.30;34.60;;;;;;5060310;28;20433;-72
2022/08/12 13:58:50;;;;;;;3.13;1.35;;;38.30;36.00;;;;;;5059115;28;20098;-72
2022/08/12 14:01:19;;;;;;;4.22;1.50;;;38.40;36.20;;;;;;5079625;28;20054;-72
2022/08/12 14:03:45;;;;;;;4.93;1.70;;;38.40;35.20;;;;;;5069474;28;20455;-72
2022/08/12 14:06:11;;;;;;;5.00;1.50;;;38.40;33.40;;;;;;5084611;28;20044;-72
2022/08/12 14:08:37;;;;;;;4.90;1.85;;;38.40;34.40;;;;;;5070093;28;20518;-72
2022/08/12 14:11:04;;;;;;;5.60;1.58;;;38.30;35.90;;;;;;5067185;28;20450;-72
2022/08/12 14:13:30;;;;;;;7.00;1.67;;;38.30;34.70;;;;;;5063266;28;20494;-72
2022/08/12 14:16:01;;;;;;;7.03;1.80;;;38.40;35.20;;;;;;5076571;28;20129;-72
2022/08/12 14:18:34;;;;;;;3.63;1.60;;;38.50;34.20;;;;;;5082689;28;20532;-72
2022/08/12 14:21:08;;;;;;;4.80;1.60;;;38.50;36.10;;;;;;5082439;28;20787;-72
2022/08/12 14:23:36;;;;;;;6.25;1.60;;;38.60;34.70;;;;;;5089313;28;20497;-72
2022/08/12 14:26:08;;;;;;;3.58;1.40;;;38.60;34.00;;;;;;5079585;28;20570;-72
2022/08/12 14:28:36;;;;;;;3.10;1.70;;;38.70;35.30;;;;;;5079496;28;20504;-72
2022/08/12 14:31:09;;;;;;;4.47;1.50;;;38.70;34.20;;;;;;5083132;28;20036;-72
2022/08/12 14:33:38;;;;;;;6.70;1.58;;;38.80;34.80;;;;;;5095971;28;20505;-72
2022/08/12 14:36:06;;;;;;;4.80;1.50;;;38.80;33.50;;;;;;5076569;28;20040;-72
2022/08/12 14:38:36;;;;;;;6.30;1.70;;;38.90;34.10;;;;;;5090674;28;20044;-71
2022/08/12 14:41:03;;;;;;;11.40;1.90;;;38.70;34.00;;;;;;5091252;28;20083;-72
2022/08/12 14:43:32;;;;;;;6.03;1.85;;;38.80;35.60;;;;;;5086087;28;20436;-72